Terminal Aerodrome Forecast
Issued by NWS

Home | Current Version | Previous Version | Text Only | Print | Product List | Glossary On
Versions: 1 2 3 4 5 6 7 8 9 10 11 12 13 14 15 16 17 18 19 20 21 22 23 24 25 26 27 28 29 30 31 32 33 34 35 36 37 38 39 40 41 42 43 44 45
000
FTUS44 KMOB 271726
TAFBFM
TAF
KBFM 271726Z 2718/2818 34013KT P6SM -TSRA SCT025CB BKN070 OVC090
     FM271900 20012KT 6SM TSRA SCT025CB BKN040
      TEMPO 2719/2723 3SM TSRA BR BKN025CB
     FM280000 11012KT 5SM TSRA BKN025CB
     FM280200 07014G21KT P6SM TS OVC035CB PROB30 2803/2805 6SM -RA
      OVC025
     FM280500 05012KT 5SM TSRA OVC019CB=

USA.gov is the U.S. government's official web portal to all federal, state and local government web resources and services.